Terminal Aerodrome Forecast
Issued by NWS Grand Forks, ND

Home | Current Version | Previous Version | Text Only | Print | Product List | Glossary Off
Versions: 1 2 3 4 5 6 7 8 9 10 11 12 13 14 15 16 17 18 19

000
FTUS43 KFGF 232100 AAB
TAFGFK
TAF AMD
KGFK 232144Z 2322/2418 34015G22KT 5SM -FZDZ BR BKN008
     FM240000 35022G30KT 4SM -SN OVC015
     FM240300 34028G35KT 3SM -SN BKN015
      TEMPO 2403/2407 1SM -SN BLSN
     FM241200 34025G33KT P6SM BKN025=

USA.gov is the U.S. government's official web portal to all federal, state and local government web resources and services.